createdAt,value
2018-05-25T00:02:26.588Z,79.60
2018-05-25T00:04:54.096Z,79.40
2018-05-25T00:07:21.587Z,79.40
2018-05-25T00:09:49.031Z,79.30
2018-05-25T00:12:17.237Z,79.50
2018-05-25T00:14:44.677Z,79.50
2018-05-25T00:17:12.141Z,79.90
2018-05-25T00:19:39.582Z,79.60
2018-05-25T00:22:08.629Z,79.80
2018-05-25T00:24:36.070Z,79.80
2018-05-25T00:27:04.346Z,79.20
2018-05-25T00:29:31.803Z,79.10
2018-05-25T00:31:59.426Z,79.70
2018-05-25T00:34:26.854Z,79.90
2018-05-25T00:36:54.302Z,79.30
2018-05-25T00:39:21.741Z,79.30
2018-05-25T00:41:49.225Z,79.20
2018-05-25T00:44:16.696Z,79.10
2018-05-25T00:46:44.185Z,79.70
2018-05-25T00:49:12.379Z,79.10
2018-05-25T00:51:39.830Z,78.90
2018-05-25T00:54:07.276Z,79.20
2018-05-25T00:56:36.382Z,79.30
2018-05-25T00:59:03.853Z,79.60
2018-05-25T01:01:31.306Z,80.00
2018-05-25T01:03:58.750Z,79.40
2018-05-25T01:06:26.214Z,79.40
2018-05-25T01:08:54.429Z,79.80
2018-05-25T01:11:21.874Z,79.40
2018-05-25T01:13:50.998Z,79.60
2018-05-25T01:16:19.141Z,79.60
2018-05-25T01:18:47.381Z,79.60
2018-05-25T01:21:15.541Z,79.40
2018-05-25T01:23:43.762Z,79.30
2018-05-25T01:26:11.213Z,79.30
2018-05-25T01:28:38.658Z,79.40
2018-05-25T01:31:06.106Z,79.10
2018-05-25T01:33:33.562Z,79.30
2018-05-25T01:36:01.766Z,80.20
2018-05-25T01:38:29.206Z,80.20
2018-05-25T01:40:56.657Z,80.10
2018-05-25T01:43:24.104Z,79.90
2018-05-25T01:45:52.365Z,80.00
2018-05-25T01:48:20.588Z,79.80
2018-05-25T01:50:48.035Z,79.80
2018-05-25T01:53:15.497Z,79.70
2018-05-25T01:55:42.946Z,79.50
2018-05-25T01:58:11.182Z,79.50
2018-05-25T02:00:38.634Z,79.80
2018-05-25T02:03:06.078Z,79.50
2018-05-25T02:05:33.517Z,79.50
2018-05-25T02:08:00.970Z,79.80
2018-05-25T02:10:28.438Z,80.00
2018-05-25T02:12:55.929Z,79.60
2018-05-25T02:15:23.387Z,79.70
2018-05-25T02:17:51.602Z,79.70
2018-05-25T02:20:19.034Z,79.60
2018-05-25T02:22:47.914Z,80.10
2018-05-25T02:25:16.127Z,80.00
2018-05-25T02:27:44.358Z,79.70
2018-05-25T02:30:11.798Z,79.80
2018-05-25T02:32:39.281Z,79.90
2018-05-25T02:35:06.770Z,80.10
2018-05-25T02:37:34.218Z,80.60
2018-05-25T02:40:01.723Z,80.10
2018-05-25T02:42:29.158Z,79.60
2018-05-25T02:44:56.613Z,79.90
2018-05-25T02:47:24.069Z,80.20
2018-05-25T02:49:51.529Z,80.30
2018-05-25T02:52:18.995Z,80.50
2018-05-25T02:54:46.443Z,80.80
2018-05-25T02:57:13.912Z,80.40
2018-05-25T02:59:41.338Z,80.30
2018-05-25T03:02:08.921Z,80.30
2018-05-25T03:04:36.367Z,80.60
2018-05-25T03:07:03.846Z,80.50
2018-05-25T03:09:31.305Z,80.50
2018-05-25T03:11:59.514Z,80.20
2018-05-25T03:14:26.974Z,80.20
2018-05-25T03:16:54.439Z,80.50
2018-05-25T03:19:21.857Z,80.60
2018-05-25T03:21:49.301Z,80.80
2018-05-25T03:24:16.741Z,80.60
2018-05-25T03:26:44.221Z,80.60
2018-05-25T03:29:11.663Z,80.60
2018-05-25T03:31:39.601Z,80.40
2018-05-25T03:34:07.813Z,80.70
2018-05-25T03:36:35.261Z,80.60
2018-05-25T03:39:03.263Z,80.70
2018-05-25T03:41:30.713Z,80.40
2018-05-25T03:43:58.158Z,80.70
2018-05-25T03:46:25.613Z,80.60
2018-05-25T03:48:53.882Z,80.80
2018-05-25T03:51:21.344Z,80.60
2018-05-25T03:53:48.786Z,80.50
2018-05-25T03:56:16.310Z,80.70
2018-05-25T03:58:55.462Z,80.50
2018-05-25T04:01:35.590Z,80.70
2018-05-25T04:04:02.991Z,80.70
2018-05-25T04:06:30.682Z,80.80
2018-05-25T04:08:58.148Z,81.30
2018-05-25T04:11:25.634Z,81.30
2018-05-25T04:13:53.066Z,81.40
2018-05-25T04:16:20.523Z,81.20
2018-05-25T04:18:47.965Z,81.00
2018-05-25T04:21:16.426Z,80.80
2018-05-25T04:23:43.892Z,80.70
2018-05-25T04:26:11.338Z,80.70
2018-05-25T04:28:38.829Z,80.90
2018-05-25T04:31:06.305Z,80.60
2018-05-25T04:33:34.524Z,80.70
2018-05-25T04:36:02.758Z,80.70
2018-05-25T04:38:30.974Z,81.10
2018-05-25T04:40:59.187Z,81.60
2018-05-25T04:43:27.853Z,81.50
2018-05-25T04:45:55.322Z,81.50
2018-05-25T04:48:22.777Z,81.80
2018-05-25T04:50:50.231Z,81.50
2018-05-25T04:53:17.677Z,81.60
2018-05-25T04:55:45.742Z,81.40
2018-05-25T04:58:13.181Z,82.00
2018-05-25T05:00:41.395Z,82.10
2018-05-25T05:03:08.837Z,82.00
2018-05-25T05:05:36.307Z,81.90
2018-05-25T05:08:03.778Z,82.40
2018-05-25T05:10:31.223Z,82.20
2018-05-25T05:12:58.679Z,81.80
2018-05-25T05:15:26.136Z,81.90
2018-05-25T05:17:53.619Z,81.70
2018-05-25T05:20:21.058Z,81.70
2018-05-25T05:22:49.030Z,81.40
2018-05-25T05:25:16.534Z,81.70
2018-05-25T05:27:45.175Z,82.00
2018-05-25T05:30:12.628Z,82.00
2018-05-25T05:32:40.110Z,81.70
2018-05-25T05:35:07.587Z,81.70
2018-05-25T05:37:35.030Z,81.30
2018-05-25T05:40:02.474Z,81.00
2018-05-25T05:42:29.970Z,80.60
2018-05-25T05:44:57.409Z,80.10
2018-05-25T05:47:24.872Z,79.70
2018-05-25T05:49:52.318Z,79.10
2018-05-25T05:52:19.782Z,79.10
2018-05-25T05:54:47.233Z,78.70
2018-05-25T05:57:14.699Z,78.60
2018-05-25T05:59:42.174Z,78.30
2018-05-25T06:02:09.634Z,78.40
2018-05-25T06:04:37.083Z,78.10
2018-05-25T06:07:05.066Z,78.40
2018-05-25T06:09:34.175Z,79.70
2018-05-25T06:12:02.410Z,78.80
2018-05-25T06:14:29.871Z,78.70
2018-05-25T06:16:57.314Z,78.90
2018-05-25T06:19:24.786Z,78.60
2018-05-25T06:21:52.220Z,77.80
2018-05-25T06:24:19.657Z,77.50
2018-05-25T06:26:47.114Z,77.50
2018-05-25T06:29:14.554Z,77.90
2018-05-25T06:31:42.051Z,76.80
2018-05-25T06:34:09.501Z,77.40
2018-05-25T06:36:36.962Z,77.50
2018-05-25T06:39:04.426Z,77.20
2018-05-25T06:41:31.894Z,77.40
2018-05-25T06:43:59.337Z,77.10
2018-05-25T06:46:26.794Z,76.80
2018-05-25T06:48:54.237Z,77.20
2018-05-25T06:51:21.686Z,77.20
2018-05-25T06:53:49.148Z,76.60
2018-05-25T06:56:16.602Z,75.60
2018-05-25T06:58:44.058Z,76.30
2018-05-25T07:01:11.527Z,76.10
2018-05-25T07:03:39.046Z,76.60
2018-05-25T07:06:06.496Z,76.00
2018-05-25T07:08:34.658Z,76.30
2018-05-25T07:11:02.135Z,73.80
2018-05-25T07:13:29.588Z,73.10
2018-05-25T07:15:57.030Z,73.40
2018-05-25T07:18:24.630Z,73.40
2018-05-25T07:20:52.837Z,72.10
2018-05-25T07:23:20.318Z,72.10
2018-05-25T07:25:47.773Z,72.40
2018-05-25T07:28:15.230Z,71.60
2018-05-25T07:30:42.666Z,71.90
2018-05-25T07:33:10.879Z,71.40
2018-05-25T07:35:38.317Z,71.30
2018-05-25T07:38:05.766Z,71.40
2018-05-25T07:40:33.222Z,71.20
2018-05-25T07:43:00.678Z,70.60
2018-05-25T07:45:28.138Z,71.20
2018-05-25T07:47:55.637Z,71.80
2018-05-25T07:50:23.100Z,72.50
2018-05-25T07:52:50.545Z,71.70
2018-05-25T07:55:18.009Z,73.10
2018-05-25T07:57:45.460Z,71.10
2018-05-25T08:00:12.937Z,70.10
2018-05-25T08:02:40.361Z,70.80
2018-05-25T08:05:07.836Z,68.30
2018-05-25T08:07:35.293Z,68.20
2018-05-25T08:10:02.754Z,67.10
2018-05-25T08:12:30.564Z,67.10
2018-05-25T08:15:00.911Z,66.80
2018-05-25T08:17:28.358Z,66.40
2018-05-25T08:19:55.831Z,66.30
2018-05-25T08:22:24.394Z,67.60
2018-05-25T08:24:51.848Z,68.30
2018-05-25T08:27:19.321Z,68.10
2018-05-25T08:29:46.763Z,67.30
2018-05-25T08:32:14.225Z,66.50
2018-05-25T08:34:41.665Z,66.50
2018-05-25T08:37:09.133Z,65.10
2018-05-25T08:39:36.592Z,66.40
2018-05-25T08:42:04.039Z,67.20
2018-05-25T08:44:32.260Z,65.30
2018-05-25T08:46:59.698Z,65.30
2018-05-25T08:49:27.206Z,65.40
2018-05-25T08:51:54.621Z,65.20
2018-05-25T08:54:22.072Z,64.70
2018-05-25T08:56:49.543Z,65.40
2018-05-25T08:59:17.011Z,66.10
2018-05-25T09:01:44.466Z,66.10
2018-05-25T09:04:11.934Z,65.10
2018-05-25T09:06:39.471Z,64.30
2018-05-25T09:09:07.382Z,65.10
2018-05-25T09:11:35.589Z,62.30
2018-05-25T09:14:03.059Z,62.30
2018-05-25T09:16:31.305Z,61.30
2018-05-25T09:18:59.536Z,60.80
2018-05-25T09:21:26.973Z,60.80
2018-05-25T09:23:54.420Z,63.10
2018-05-25T09:26:21.878Z,62.50
2018-05-25T09:28:49.321Z,61.40
2018-05-25T09:31:16.782Z,62.40
2018-05-25T09:33:44.223Z,62.90
2018-05-25T09:36:12.239Z,63.50
2018-05-25T09:38:39.768Z,63.60
2018-05-25T09:41:07.290Z,64.70
2018-05-25T09:43:35.626Z,64.50
2018-05-25T09:46:03.260Z,64.40
2018-05-25T09:48:30.725Z,66.10
2018-05-25T09:50:58.173Z,65.10
2018-05-25T09:53:25.622Z,67.50
2018-05-25T09:55:53.847Z,68.60
2018-05-25T09:58:21.319Z,69.30
2018-05-25T10:00:48.770Z,69.40
2018-05-25T10:03:16.257Z,69.10
2018-05-25T10:05:43.694Z,69.00
2018-05-25T10:08:11.201Z,70.60
2018-05-25T10:10:38.649Z,70.90
2018-05-25T10:13:06.863Z,71.20
2018-05-25T10:15:34.314Z,71.80
2018-05-25T10:18:01.766Z,71.70
2018-05-25T10:20:29.209Z,72.60
2018-05-25T10:22:56.658Z,76.30
2018-05-25T10:25:25.236Z,79.20
2018-05-25T10:27:54.453Z,80.00
2018-05-25T10:30:23.559Z,80.00
2018-05-25T10:32:51.819Z,82.50
2018-05-25T10:35:19.257Z,84.70
2018-05-25T10:37:47.481Z,84.80
2018-05-25T10:40:15.698Z,86.70
2018-05-25T10:42:43.150Z,86.50
2018-05-25T10:45:10.590Z,86.90
2018-05-25T10:47:38.039Z,87.60
2018-05-25T10:50:05.496Z,88.10
2018-05-25T10:52:33.006Z,88.40
2018-05-25T10:55:01.214Z,88.70
2018-05-25T10:57:28.684Z,88.70
2018-05-25T10:59:56.137Z,88.50
2018-05-25T11:02:23.586Z,87.80
2018-05-25T11:04:51.038Z,87.60
2018-05-25T11:07:18.474Z,87.40
2018-05-25T11:09:45.931Z,87.90
2018-05-25T11:12:14.135Z,86.60
2018-05-25T11:14:41.595Z,86.60
2018-05-25T11:17:09.029Z,87.20
2018-05-25T11:19:36.490Z,86.50
2018-05-25T11:22:03.951Z,87.30
2018-05-25T11:24:31.910Z,87.50
2018-05-25T11:26:59.405Z,87.70
2018-05-25T11:29:27.583Z,88.70
2018-05-25T11:31:55.043Z,88.60
2018-05-25T11:34:22.548Z,88.90
2018-05-25T11:36:49.994Z,88.00
2018-05-25T11:39:18.566Z,88.70
2018-05-25T11:41:46.001Z,88.70
2018-05-25T11:44:14.170Z,89.40
2018-05-25T11:46:41.635Z,89.50
2018-05-25T11:49:09.082Z,90.00
2018-05-25T11:51:36.519Z,89.90
2018-05-25T11:54:03.962Z,89.80
2018-05-25T11:56:31.406Z,89.60
2018-05-25T11:58:59.617Z,89.80
2018-05-25T12:01:27.068Z,89.80
2018-05-25T12:03:54.518Z,87.90
2018-05-25T12:06:21.967Z,89.90
2018-05-25T12:08:49.428Z,86.40
2018-05-25T12:11:16.865Z,86.30
2018-05-25T12:13:45.075Z,86.40
2018-05-25T12:16:12.518Z,86.30
2018-05-25T12:18:40.037Z,84.80
2018-05-25T12:21:07.570Z,83.70
2018-05-25T12:23:35.054Z,82.10
2018-05-25T12:26:02.510Z,83.60
2018-05-25T12:28:29.950Z,83.00
2018-05-25T12:30:57.408Z,81.10
2018-05-25T12:33:26.398Z,79.30
2018-05-25T12:35:54.056Z,80.60
2018-05-25T12:38:21.490Z,83.70
2018-05-25T12:40:48.929Z,77.70
2018-05-25T12:43:18.086Z,79.60
2018-05-25T12:45:46.478Z,79.40
2018-05-25T12:48:13.918Z,81.50
2018-05-25T12:50:41.390Z,80.20
2018-05-25T12:53:08.841Z,82.10
2018-05-25T12:55:36.303Z,82.00
2018-05-25T12:58:03.747Z,79.70
2018-05-25T13:00:31.779Z,80.00
2018-05-25T13:02:59.221Z,78.70
2018-05-25T13:05:26.674Z,77.60
2018-05-25T13:07:54.904Z,77.00
2018-05-25T13:10:22.362Z,76.80
2018-05-25T13:12:49.813Z,77.30
2018-05-25T13:15:17.270Z,70.30
2018-05-25T13:17:44.739Z,75.30
2018-05-25T13:20:12.178Z,71.60
2018-05-25T13:22:39.622Z,60.90
2018-05-25T13:25:07.067Z,64.50
2018-05-25T13:27:34.514Z,70.70
2018-05-25T13:30:02.749Z,71.60
2018-05-25T13:32:30.224Z,71.50
2018-05-25T13:34:57.675Z,70.10
2018-05-25T13:37:25.134Z,69.40
2018-05-25T13:39:52.597Z,73.20
2018-05-25T13:42:20.147Z,74.70
2018-05-25T13:44:48.380Z,74.30
2018-05-25T13:47:18.109Z,74.20
2018-05-25T13:49:45.558Z,73.50
2018-05-25T13:52:13.035Z,69.90
2018-05-25T13:54:40.520Z,73.20
2018-05-25T13:57:07.961Z,69.10
2018-05-25T13:59:35.438Z,72.40
2018-05-25T14:02:02.878Z,69.30
2018-05-25T14:04:30.415Z,72.20
2018-05-25T14:06:58.718Z,68.90
2018-05-25T14:09:26.203Z,68.70
2018-05-25T14:11:54.427Z,73.60
2018-05-25T14:14:21.898Z,73.50
2018-05-25T14:16:49.370Z,68.60
2018-05-25T14:19:16.830Z,70.40
2018-05-25T14:21:44.279Z,69.30
2018-05-25T14:24:11.780Z,69.50
2018-05-25T14:26:40.016Z,67.90
2018-05-25T14:29:07.594Z,67.80
2018-05-25T14:31:37.299Z,68.40
2018-05-25T14:34:04.763Z,69.70
2018-05-25T14:36:34.449Z,70.90
2018-05-25T14:39:01.901Z,70.90
2018-05-25T14:41:29.381Z,70.00
2018-05-25T14:43:59.728Z,66.70
2018-05-25T14:46:27.942Z,71.00
2018-05-25T14:48:55.389Z,71.00
2018-05-25T14:51:23.982Z,66.50
2018-05-25T14:53:51.436Z,61.70
2018-05-25T14:56:19.641Z,63.10
2018-05-25T14:58:47.086Z,63.00
2018-05-25T15:01:14.521Z,62.00
2018-05-25T15:03:41.984Z,60.10
2018-05-25T15:06:09.417Z,60.30
2018-05-25T15:08:36.861Z,59.70
2018-05-25T15:11:05.092Z,59.50
2018-05-25T15:13:32.538Z,59.40
2018-05-25T15:15:59.987Z,62.50
2018-05-25T15:18:27.443Z,63.60
2018-05-25T15:20:54.879Z,64.80
2018-05-25T15:23:22.337Z,64.10
2018-05-25T15:25:49.792Z,61.10
2018-05-25T15:28:18.133Z,60.00
2018-05-25T15:30:46.483Z,57.00
2018-05-25T15:33:14.756Z,56.90
2018-05-25T15:35:42.190Z,59.10
2018-05-25T15:38:09.630Z,61.60
2018-05-25T15:40:38.023Z,62.10
2018-05-25T15:43:05.490Z,62.10
2018-05-25T15:45:32.939Z,63.90
2018-05-25T15:48:00.412Z,62.20
2018-05-25T15:50:27.975Z,57.70
2018-05-25T15:52:57.935Z,56.40
2018-05-25T15:55:25.390Z,57.50
2018-05-25T15:57:52.829Z,59.10
2018-05-25T16:00:20.290Z,61.10
2018-05-25T16:02:47.725Z,62.00
2018-05-25T16:05:16.142Z,64.00
2018-05-25T16:07:43.618Z,64.40
2018-05-25T16:10:11.056Z,64.10
2018-05-25T16:12:38.558Z,65.40
2018-05-25T16:15:06.010Z,63.60
2018-05-25T16:17:33.461Z,63.50
2018-05-25T16:20:01.657Z,62.30
2018-05-25T16:22:29.098Z,62.30
2018-05-25T16:24:57.304Z,64.60
2018-05-25T16:27:24.737Z,64.50
2018-05-25T16:29:52.175Z,64.40
2018-05-25T16:32:20.378Z,64.60
2018-05-25T16:34:47.909Z,64.60
2018-05-25T16:37:16.130Z,64.30
2018-05-25T16:39:43.558Z,64.20
2018-05-25T16:42:11.006Z,66.50
2018-05-25T16:44:39.226Z,64.90
2018-05-25T16:47:06.672Z,64.80
2018-05-25T16:49:34.157Z,65.50
2018-05-25T16:52:01.623Z,65.40
2018-05-25T16:54:29.299Z,66.00
2018-05-25T16:56:56.743Z,63.50
2018-05-25T16:59:24.190Z,63.40
2018-05-25T17:01:51.888Z,64.30
2018-05-25T17:04:19.368Z,66.20
2018-05-25T17:06:47.578Z,63.70
2018-05-25T17:09:15.027Z,63.60
2018-05-25T17:11:42.476Z,65.60
2018-05-25T17:14:09.910Z,63.80
2018-05-25T17:16:37.351Z,65.80
2018-05-25T17:19:04.789Z,64.00
2018-05-25T17:21:32.269Z,65.00
2018-05-25T17:24:00.487Z,65.20
2018-05-25T17:26:27.927Z,65.20
2018-05-25T17:28:55.372Z,66.50
2018-05-25T17:31:22.829Z,64.50
2018-05-25T17:33:51.073Z,63.10
2018-05-25T17:36:18.521Z,63.20
2018-05-25T17:38:45.960Z,66.30
2018-05-25T17:41:14.409Z,66.10
2018-05-25T17:43:42.902Z,64.50
2018-05-25T17:46:10.353Z,64.40
2018-05-25T17:48:37.802Z,64.30
2018-05-25T17:51:06.015Z,64.20
2018-05-25T17:53:33.559Z,64.20
2018-05-25T17:56:01.681Z,65.30
2018-05-25T17:58:29.112Z,64.10
2018-05-25T18:00:56.782Z,64.40
2018-05-25T18:03:24.433Z,63.50
2018-05-25T18:05:51.937Z,67.20
2018-05-25T18:08:19.357Z,66.10
2018-05-25T18:10:46.810Z,66.30
2018-05-25T18:13:14.261Z,66.70
2018-05-25T18:15:41.714Z,66.30
2018-05-25T18:18:09.149Z,68.10
2018-05-25T18:20:37.334Z,68.30
2018-05-25T18:23:04.774Z,68.90
2018-05-25T18:25:32.230Z,69.70
2018-05-25T18:27:59.907Z,69.10
2018-05-25T18:30:27.462Z,69.80
2018-05-25T18:32:54.925Z,70.00
2018-05-25T18:35:23.149Z,70.30
2018-05-25T18:37:50.573Z,70.30
2018-05-25T18:40:20.733Z,70.70
2018-05-25T18:42:49.056Z,70.50
2018-05-25T18:45:17.314Z,70.40
2018-05-25T18:47:44.799Z,70.90
2018-05-25T18:50:12.250Z,71.20
2018-05-25T18:52:39.689Z,71.40
2018-05-25T18:55:07.785Z,71.80
2018-05-25T18:57:36.013Z,71.70
2018-05-25T19:00:03.464Z,71.70
2018-05-25T19:02:30.914Z,73.20
2018-05-25T19:04:58.422Z,72.00
2018-05-25T19:07:25.888Z,72.40
2018-05-25T19:09:53.366Z,74.10
2018-05-25T19:12:20.866Z,71.80
2018-05-25T19:14:48.307Z,71.70
2018-05-25T19:17:15.747Z,71.80
2018-05-25T19:19:43.233Z,71.20
2018-05-25T19:22:10.669Z,71.90
2018-05-25T19:24:38.165Z,73.00
2018-05-25T19:27:05.610Z,73.00
2018-05-25T19:29:33.079Z,72.80
2018-05-25T19:32:01.287Z,72.70
2018-05-25T19:34:28.729Z,72.60
2018-05-25T19:36:56.700Z,72.80
2018-05-25T19:39:24.151Z,72.40
2018-05-25T19:41:51.597Z,73.00
2018-05-25T19:44:20.151Z,73.90
2018-05-25T19:46:47.677Z,73.90
2018-05-25T19:49:15.824Z,73.50
2018-05-25T19:51:45.043Z,73.00
2018-05-25T19:54:12.490Z,73.60
2018-05-25T19:56:39.951Z,74.10
2018-05-25T19:59:08.461Z,74.90
2018-05-25T20:01:35.917Z,74.10
2018-05-25T20:04:03.428Z,73.40
2018-05-25T20:06:30.809Z,73.20
2018-05-25T20:08:58.267Z,74.60
2018-05-25T20:11:25.716Z,75.10
2018-05-25T20:13:53.174Z,74.50
2018-05-25T20:16:20.626Z,74.80
2018-05-25T20:18:48.100Z,74.80
2018-05-25T20:21:15.561Z,74.80
2018-05-25T20:23:43.006Z,74.90
2018-05-25T20:26:10.459Z,75.00
2018-05-25T20:28:37.918Z,75.10
2018-05-25T20:31:05.376Z,75.10
2018-05-25T20:33:32.822Z,75.10
2018-05-25T20:36:01.158Z,76.10
2018-05-25T20:38:28.683Z,75.00
2018-05-25T20:40:56.148Z,75.00
2018-05-25T20:43:23.593Z,76.30
2018-05-25T20:45:51.031Z,75.10
2018-05-25T20:48:19.276Z,75.70
2018-05-25T20:50:46.707Z,75.70
2018-05-25T20:53:14.169Z,76.00
2018-05-25T20:55:41.614Z,77.10
2018-05-25T20:58:09.103Z,76.10
2018-05-25T21:00:37.546Z,76.90
2018-05-25T21:03:04.986Z,77.30
2018-05-25T21:05:32.439Z,77.50
2018-05-25T21:07:59.886Z,76.30
2018-05-25T21:10:28.103Z,76.50
2018-05-25T21:12:55.562Z,76.50
2018-05-25T21:15:23.027Z,77.30
2018-05-25T21:17:50.510Z,77.40
2018-05-25T21:20:17.966Z,76.70
2018-05-25T21:22:45.735Z,77.60
2018-05-25T21:25:13.197Z,78.00
2018-05-25T21:27:40.664Z,78.10
2018-05-25T21:30:08.900Z,77.70
2018-05-25T21:32:36.349Z,77.30
2018-05-25T21:35:03.795Z,75.60
2018-05-25T21:37:32.631Z,76.90
2018-05-25T21:40:00.299Z,76.90
2018-05-25T21:42:27.744Z,76.40
2018-05-25T21:44:55.190Z,77.00
2018-05-25T21:47:22.654Z,77.50
2018-05-25T21:49:50.096Z,78.30
2018-05-25T21:52:17.541Z,76.90
2018-05-25T21:54:44.987Z,77.50
2018-05-25T21:57:13.201Z,78.10
2018-05-25T21:59:40.662Z,77.40
2018-05-25T22:02:08.114Z,77.70
2018-05-25T22:04:35.570Z,77.70
2018-05-25T22:07:03.025Z,77.70
2018-05-25T22:09:30.488Z,77.50
2018-05-25T22:11:57.954Z,78.80
2018-05-25T22:14:25.393Z,78.10
2018-05-25T22:16:52.851Z,78.10
2018-05-25T22:19:20.297Z,77.10
2018-05-25T22:21:47.754Z,78.00
2018-05-25T22:24:15.209Z,78.90
2018-05-25T22:26:42.646Z,78.40
2018-05-25T22:29:10.105Z,78.20
2018-05-25T22:31:37.548Z,78.60
2018-05-25T22:34:05.897Z,79.60
2018-05-25T22:36:33.338Z,79.50
2018-05-25T22:39:00.781Z,80.00
2018-05-25T22:41:28.245Z,78.90
2018-05-25T22:44:07.477Z,79.40
2018-05-25T22:46:46.835Z,78.10
2018-05-25T22:49:26.212Z,77.90
2018-05-25T22:52:05.786Z,79.30
2018-05-25T22:54:38.981Z,78.20
2018-05-25T22:57:06.437Z,78.90
2018-05-25T22:59:33.894Z,78.50
2018-05-25T23:02:01.440Z,78.10
2018-05-25T23:04:28.885Z,78.50
2018-05-25T23:06:56.317Z,78.90
2018-05-25T23:09:25.250Z,79.00
2018-05-25T23:11:52.723Z,79.00
2018-05-25T23:14:20.192Z,78.80
2018-05-25T23:16:47.687Z,78.70
2018-05-25T23:19:15.898Z,78.40
2018-05-25T23:21:43.346Z,78.40
2018-05-25T23:24:11.421Z,79.80
2018-05-25T23:26:39.662Z,79.60
2018-05-25T23:29:07.922Z,79.70
2018-05-25T23:34:09.266Z,80.20
2018-05-25T23:36:36.715Z,80.20
2018-05-25T23:39:04.175Z,79.50
2018-05-25T23:41:31.640Z,79.60
2018-05-25T23:43:59.110Z,79.70
2018-05-25T23:46:26.568Z,80.10
2018-05-25T23:48:54.525Z,78.40
2018-05-25T23:51:22.618Z,78.90
2018-05-25T23:53:50.073Z,79.50
2018-05-25T23:56:17.525Z,79.90
2018-05-25T23:58:44.993Z,79.60
